createdAt,value
2022-12-14T00:00:31.298Z,924.37
2022-12-14T00:01:31.356Z,924.44
2022-12-14T00:02:31.427Z,924.40
2022-12-14T00:03:31.256Z,924.46
2022-12-14T00:04:31.255Z,924.70
2022-12-14T00:05:31.217Z,924.60
2022-12-14T00:06:31.503Z,924.77
2022-12-14T00:07:31.273Z,924.70
2022-12-14T00:08:31.953Z,924.73
2022-12-14T00:09:31.358Z,924.68
2022-12-14T00:10:31.155Z,924.72
2022-12-14T00:11:31.431Z,924.71
2022-12-14T00:12:31.170Z,924.71
2022-12-14T00:13:31.227Z,924.66
2022-12-14T00:14:31.740Z,924.66
2022-12-14T00:15:31.205Z,924.66
2022-12-14T00:16:32.116Z,924.68
2022-12-14T00:17:31.094Z,924.69
2022-12-14T00:18:31.150Z,924.71
2022-12-14T00:19:31.122Z,924.66
2022-12-14T00:20:31.650Z,924.69
2022-12-14T00:21:31.175Z,924.70
2022-12-14T00:22:31.017Z,924.67
2022-12-14T00:23:35.612Z,924.60
2022-12-14T00:24:30.984Z,924.59
2022-12-14T00:25:31.047Z,924.55
2022-12-14T00:26:30.989Z,924.53
2022-12-14T00:27:31.003Z,924.54
2022-12-14T00:28:31.882Z,924.56
2022-12-14T00:29:30.964Z,924.54
2022-12-14T00:30:30.920Z,924.52
2022-12-14T00:31:30.998Z,924.54
2022-12-14T00:32:30.937Z,924.55
2022-12-14T00:33:30.891Z,924.58
2022-12-14T00:34:30.902Z,924.59
2022-12-14T00:35:30.904Z,924.62
2022-12-14T00:36:30.865Z,924.65
2022-12-14T00:37:30.914Z,924.69
2022-12-14T00:38:30.933Z,924.71
2022-12-14T00:39:30.827Z,924.76
2022-12-14T00:40:31.562Z,924.79
2022-12-14T00:41:30.847Z,924.83
2022-12-14T00:42:37.708Z,924.86
2022-12-14T00:43:30.878Z,924.86
2022-12-14T00:44:30.762Z,924.86
2022-12-14T00:45:30.830Z,924.88
2022-12-14T00:46:30.877Z,924.88
2022-12-14T00:47:31.613Z,924.88
2022-12-14T00:48:31.497Z,924.87
2022-12-14T00:49:30.747Z,924.89
2022-12-14T00:50:30.699Z,924.89
2022-12-14T00:51:30.710Z,924.91
2022-12-14T00:52:30.736Z,924.91
2022-12-14T00:53:31.973Z,924.94
2022-12-14T00:54:30.996Z,924.95
2022-12-14T00:55:30.928Z,924.92
2022-12-14T00:56:30.669Z,924.93
2022-12-14T00:57:30.701Z,924.91
2022-12-14T00:58:30.929Z,924.90
2022-12-14T00:59:30.717Z,924.86
2022-12-14T01:00:30.597Z,924.88
2022-12-14T01:01:30.770Z,924.87
2022-12-14T01:02:30.756Z,924.88
2022-12-14T01:03:31.365Z,924.87
2022-12-14T01:04:30.659Z,924.91
2022-12-14T01:05:30.656Z,924.89
2022-12-14T01:06:30.574Z,924.87
2022-12-14T01:07:30.567Z,924.88
2022-12-14T01:08:30.576Z,924.87
2022-12-14T01:09:30.578Z,924.87
2022-12-14T01:10:30.504Z,924.84
2022-12-14T01:11:30.830Z,924.88
2022-12-14T01:12:30.708Z,924.88
2022-12-14T01:13:30.622Z,924.87
2022-12-14T01:14:30.458Z,924.88
2022-12-14T01:15:30.459Z,924.93
2022-12-14T01:16:30.548Z,924.95
2022-12-14T01:17:30.511Z,924.97
2022-12-14T01:18:30.440Z,925.03
2022-12-14T01:19:30.423Z,925.07
2022-12-14T01:20:30.425Z,925.08
2022-12-14T01:21:30.664Z,925.08
2022-12-14T01:22:30.443Z,925.07
2022-12-14T01:23:30.760Z,925.12
2022-12-14T01:24:30.454Z,925.08
2022-12-14T01:25:30.362Z,925.05
2022-12-14T01:26:30.375Z,925.01
2022-12-14T01:27:30.372Z,925.03
2022-12-14T01:28:30.592Z,925.01
2022-12-14T01:29:32.333Z,925.03
2022-12-14T01:30:31.718Z,925.03
2022-12-14T01:31:30.364Z,925.04
2022-12-14T01:32:30.298Z,925.06
2022-12-14T01:33:30.593Z,925.04
2022-12-14T01:34:30.420Z,925.04
2022-12-14T01:35:31.285Z,925.04
2022-12-14T01:36:30.230Z,925.02
2022-12-14T01:37:30.270Z,925.05
2022-12-14T01:38:30.260Z,925.07
2022-12-14T01:39:30.143Z,925.07
2022-12-14T01:40:30.260Z,925.05
2022-12-14T01:41:30.165Z,925.08
2022-12-14T01:42:30.162Z,925.06
2022-12-14T01:43:30.251Z,925.07
2022-12-14T01:44:30.183Z,925.01
2022-12-14T01:45:30.083Z,924.99
2022-12-14T01:46:30.059Z,925.02
2022-12-14T01:47:30.102Z,925.03
2022-12-14T01:48:30.099Z,925.05
2022-12-14T01:49:30.043Z,925.05
2022-12-14T01:50:30.112Z,925.06
2022-12-14T01:51:30.031Z,925.07
2022-12-14T01:52:30.020Z,925.08
2022-12-14T01:53:30.278Z,925.06
2022-12-14T01:54:30.042Z,925.08
2022-12-14T01:55:30.757Z,925.05
2022-12-14T01:56:29.992Z,925.08
2022-12-14T01:57:29.998Z,925.11
2022-12-14T01:58:29.960Z,925.11
2022-12-14T01:59:30.069Z,925.12
2022-12-14T02:00:29.979Z,925.09
2022-12-14T02:01:30.021Z,925.09
2022-12-14T02:02:30.170Z,925.10
2022-12-14T02:03:30.390Z,925.11
2022-12-14T02:04:29.841Z,925.13
2022-12-14T02:05:29.851Z,925.18
2022-12-14T02:06:29.914Z,925.15
2022-12-14T02:07:29.915Z,925.19
2022-12-14T02:08:29.870Z,925.14
2022-12-14T02:09:30.354Z,925.13
2022-12-14T02:10:29.832Z,925.12
2022-12-14T02:11:29.840Z,925.10
2022-12-14T02:12:29.851Z,925.09
2022-12-14T02:13:30.308Z,925.05
2022-12-14T02:14:29.888Z,925.05
2022-12-14T02:15:29.868Z,925.06
2022-12-14T02:16:30.462Z,925.09
2022-12-14T02:17:29.779Z,925.07
2022-12-14T02:18:29.791Z,925.07
2022-12-14T02:19:29.801Z,925.10
2022-12-14T02:20:29.812Z,925.08
2022-12-14T02:21:29.938Z,925.12
2022-12-14T02:22:29.715Z,925.11
2022-12-14T02:23:30.265Z,925.11
2022-12-14T02:24:29.725Z,925.11
2022-12-14T02:25:29.731Z,925.09
2022-12-14T02:26:29.732Z,925.07
2022-12-14T02:27:29.641Z,925.07
2022-12-14T02:28:29.643Z,925.07
2022-12-14T02:29:29.659Z,925.10
2022-12-14T02:30:29.687Z,925.10
2022-12-14T02:31:29.695Z,925.12
2022-12-14T02:32:29.668Z,925.10
2022-12-14T02:33:30.048Z,925.09
2022-12-14T02:34:29.593Z,925.06
2022-12-14T02:35:30.215Z,925.05
2022-12-14T02:36:30.424Z,925.05
2022-12-14T02:37:30.328Z,925.03
2022-12-14T02:38:29.613Z,925.02
2022-12-14T02:39:29.514Z,925.01
2022-12-14T02:40:29.522Z,924.98
2022-12-14T02:41:30.980Z,924.98
2022-12-14T02:42:29.638Z,924.97
2022-12-14T02:43:29.789Z,924.95
2022-12-14T02:44:29.481Z,924.96
2022-12-14T02:45:29.486Z,924.91
2022-12-14T02:46:29.911Z,924.88
2022-12-14T02:47:29.798Z,924.88
2022-12-14T02:48:29.478Z,924.85
2022-12-14T02:49:29.478Z,924.82
2022-12-14T02:50:29.702Z,924.83
2022-12-14T02:51:29.395Z,924.83
2022-12-14T02:52:29.392Z,924.82
2022-12-14T02:53:29.993Z,924.85
2022-12-14T02:54:29.716Z,924.77
2022-12-14T02:55:29.414Z,924.78
2022-12-14T02:56:29.305Z,924.78
2022-12-14T02:57:29.266Z,924.79
2022-12-14T02:58:29.335Z,924.78
2022-12-14T02:59:29.335Z,924.78
2022-12-14T03:00:29.409Z,924.75
2022-12-14T03:01:29.555Z,924.72
2022-12-14T03:02:29.341Z,924.73
2022-12-14T03:03:29.606Z,924.73
2022-12-14T03:04:29.292Z,924.75
2022-12-14T03:05:29.304Z,924.75
2022-12-14T03:06:29.296Z,924.80
2022-12-14T03:07:29.200Z,924.74
2022-12-14T03:08:29.226Z,924.75
2022-12-14T03:09:29.233Z,924.70
2022-12-14T03:10:29.213Z,924.71
2022-12-14T03:11:29.362Z,924.69
2022-12-14T03:12:29.235Z,924.70
2022-12-14T03:13:29.820Z,924.68
2022-12-14T03:14:29.150Z,924.68
2022-12-14T03:15:29.148Z,924.65
2022-12-14T03:16:29.193Z,924.64
2022-12-14T03:17:29.155Z,924.64
2022-12-14T03:18:29.166Z,924.61
2022-12-14T03:19:29.090Z,924.59
2022-12-14T03:20:29.019Z,924.59
2022-12-14T03:21:29.083Z,924.62
2022-12-14T03:22:29.086Z,924.63
2022-12-14T03:23:29.863Z,924.65
2022-12-14T03:24:29.041Z,924.61
2022-12-14T03:25:29.001Z,924.58
2022-12-14T03:26:29.010Z,924.58
2022-12-14T03:27:29.028Z,924.56
2022-12-14T03:28:28.969Z,924.61
2022-12-14T03:29:29.850Z,924.61
2022-12-14T03:30:58.249Z,924.59
2022-12-14T03:31:29.025Z,924.60
2022-12-14T03:32:28.994Z,924.59
2022-12-14T03:33:29.464Z,924.58
2022-12-14T03:34:28.949Z,924.55
2022-12-14T03:35:29.284Z,924.54
2022-12-14T03:36:28.973Z,924.56
2022-12-14T03:37:28.880Z,924.56
2022-12-14T03:38:28.919Z,924.56
2022-12-14T03:39:28.838Z,924.53
2022-12-14T03:40:28.845Z,924.51
2022-12-14T03:41:29.126Z,924.48
2022-12-14T03:42:28.856Z,924.46
2022-12-14T03:43:29.282Z,924.45
2022-12-14T03:44:28.838Z,924.39
2022-12-14T03:45:28.911Z,924.40
2022-12-14T03:46:28.778Z,924.39
2022-12-14T03:47:28.837Z,924.36
2022-12-14T03:48:28.831Z,924.34
2022-12-14T03:49:28.786Z,924.34
2022-12-14T03:50:28.888Z,924.35
2022-12-14T03:51:28.705Z,924.33
2022-12-14T03:52:28.765Z,924.34
2022-12-14T03:53:29.540Z,924.33
2022-12-14T03:54:28.692Z,924.34
2022-12-14T03:55:28.699Z,924.35
2022-12-14T03:56:28.707Z,924.35
2022-12-14T03:57:28.712Z,924.36
2022-12-14T03:58:28.718Z,924.33
2022-12-14T03:59:28.825Z,924.30
2022-12-14T04:00:28.635Z,924.29
2022-12-14T04:01:28.808Z,924.26
2022-12-14T04:02:28.740Z,924.24
2022-12-14T04:03:29.011Z,924.25
2022-12-14T04:04:28.675Z,924.24
2022-12-14T04:05:29.386Z,924.26
2022-12-14T04:06:28.586Z,924.26
2022-12-14T04:07:28.577Z,924.23
2022-12-14T04:08:28.598Z,924.22
2022-12-14T04:09:28.605Z,924.20
2022-12-14T04:10:28.717Z,924.20
2022-12-14T04:11:28.824Z,924.18
2022-12-14T04:12:28.494Z,924.17
2022-12-14T04:13:28.974Z,924.19
2022-12-14T04:14:28.480Z,924.21
2022-12-14T04:15:28.540Z,924.22
2022-12-14T04:16:28.554Z,924.21
2022-12-14T04:17:28.497Z,924.26
2022-12-14T04:18:28.446Z,924.25
2022-12-14T04:19:28.471Z,924.28
2022-12-14T04:20:28.494Z,924.28
2022-12-14T04:21:28.464Z,924.30
2022-12-14T04:22:28.486Z,924.29
2022-12-14T04:23:28.882Z,924.30
2022-12-14T04:24:28.411Z,924.29
2022-12-14T04:25:28.385Z,924.31
2022-12-14T04:26:28.408Z,924.34
2022-12-14T04:27:28.426Z,924.32
2022-12-14T04:28:28.366Z,924.32
2022-12-14T04:29:28.553Z,924.31
2022-12-14T04:30:28.337Z,924.32
2022-12-14T04:31:28.418Z,924.32
2022-12-14T04:32:28.490Z,924.33
2022-12-14T04:33:28.693Z,924.34
2022-12-14T04:34:28.378Z,924.37
2022-12-14T04:35:28.371Z,924.36
2022-12-14T04:36:28.277Z,924.34
2022-12-14T04:37:28.279Z,924.34
2022-12-14T04:38:28.902Z,924.33
2022-12-14T04:39:28.291Z,924.35
2022-12-14T04:40:28.299Z,924.30
2022-12-14T04:41:28.303Z,924.27
2022-12-14T04:42:28.222Z,924.25
2022-12-14T04:43:28.734Z,924.24
2022-12-14T04:44:28.222Z,924.23
2022-12-14T04:45:28.250Z,924.24
2022-12-14T04:46:28.219Z,924.23
2022-12-14T04:47:28.227Z,924.24
2022-12-14T04:48:28.130Z,924.25
2022-12-14T04:49:28.239Z,924.25
2022-12-14T04:50:28.162Z,924.26
2022-12-14T04:51:28.867Z,924.27
2022-12-14T04:52:28.911Z,924.28
2022-12-14T04:53:28.463Z,924.29
2022-12-14T04:54:28.025Z,924.29
2022-12-14T04:55:28.012Z,924.30
2022-12-14T04:56:28.082Z,924.27
2022-12-14T04:57:28.028Z,924.26
2022-12-14T04:58:28.100Z,924.25
2022-12-14T04:59:28.110Z,924.21
2022-12-14T05:00:28.046Z,924.18
2022-12-14T05:01:28.079Z,924.16
2022-12-14T05:02:28.122Z,924.14
2022-12-14T05:03:28.397Z,924.14
2022-12-14T05:04:28.034Z,924.16
2022-12-14T05:05:28.054Z,924.17
2022-12-14T05:06:27.950Z,924.19
2022-12-14T05:07:27.953Z,924.18
2022-12-14T05:08:27.970Z,924.16
2022-12-14T05:09:27.975Z,924.14
2022-12-14T05:10:27.980Z,924.12
2022-12-14T05:11:52.636Z,924.12
2022-12-14T05:12:27.898Z,924.13
2022-12-14T05:13:28.220Z,924.14
2022-12-14T05:14:27.878Z,924.15
2022-12-14T05:15:27.882Z,924.16
2022-12-14T05:16:27.931Z,924.15
2022-12-14T05:17:27.841Z,924.14
2022-12-14T05:18:27.825Z,924.14
2022-12-14T05:19:27.799Z,924.12
2022-12-14T05:20:27.808Z,924.10
2022-12-14T05:21:27.820Z,924.11
2022-12-14T05:22:27.769Z,924.09
2022-12-14T05:23:28.286Z,924.12
2022-12-14T05:24:27.769Z,924.11
2022-12-14T05:25:27.741Z,924.11
2022-12-14T05:26:27.789Z,924.12
2022-12-14T05:27:27.753Z,924.10
2022-12-14T05:28:27.662Z,924.10
2022-12-14T05:29:27.676Z,924.09
2022-12-14T05:30:27.749Z,924.09
2022-12-14T05:31:27.683Z,924.10
2022-12-14T05:32:27.629Z,924.07
2022-12-14T05:33:28.300Z,924.07
2022-12-14T05:34:27.601Z,924.03
2022-12-14T05:35:27.639Z,924.02
2022-12-14T05:36:27.646Z,924.05
2022-12-14T05:37:27.644Z,924.02
2022-12-14T05:38:27.575Z,924.01
2022-12-14T05:39:27.572Z,924.01
2022-12-14T05:40:27.568Z,923.95
2022-12-14T05:41:27.578Z,924.00
2022-12-14T05:42:27.582Z,923.97
2022-12-14T05:43:28.036Z,923.92
2022-12-14T05:44:27.700Z,923.95
2022-12-14T05:45:27.606Z,923.95
2022-12-14T05:46:27.551Z,923.97
2022-12-14T05:47:27.520Z,923.96
2022-12-14T05:48:27.502Z,923.96
2022-12-14T05:49:27.433Z,923.99
2022-12-14T05:50:27.513Z,923.95
2022-12-14T05:51:27.442Z,924.03
2022-12-14T05:52:27.425Z,923.98
2022-12-14T05:53:28.785Z,924.00
2022-12-14T05:54:27.431Z,923.99
2022-12-14T05:55:27.364Z,924.05
2022-12-14T05:56:27.392Z,924.14
2022-12-14T05:57:27.402Z,924.02
2022-12-14T05:58:27.394Z,924.05
2022-12-14T05:59:27.403Z,924.05
2022-12-14T06:00:27.413Z,924.08
2022-12-14T06:01:27.318Z,924.11
2022-12-14T06:02:27.533Z,924.18
2022-12-14T06:03:27.744Z,924.11
2022-12-14T06:04:27.390Z,924.11
2022-12-14T06:05:27.335Z,924.08
2022-12-14T06:06:27.238Z,924.11
2022-12-14T06:07:28.241Z,924.13
2022-12-14T06:08:27.259Z,924.11
2022-12-14T06:09:27.231Z,924.11
2022-12-14T06:10:27.233Z,924.09
2022-12-14T06:11:27.249Z,924.09
2022-12-14T06:12:27.245Z,924.10
2022-12-14T06:13:27.417Z,924.11
2022-12-14T06:14:27.293Z,924.12
2022-12-14T06:15:32.294Z,924.12
2022-12-14T06:16:27.229Z,924.14
2022-12-14T06:17:27.191Z,924.12
2022-12-14T06:18:27.127Z,924.11
2022-12-14T06:19:27.133Z,924.12
2022-12-14T06:20:27.141Z,924.09
2022-12-14T06:21:27.148Z,924.10
2022-12-14T06:22:27.098Z,924.12
2022-12-14T06:23:27.566Z,924.10
2022-12-14T06:24:27.065Z,924.12
2022-12-14T06:25:27.063Z,924.07
2022-12-14T06:26:27.073Z,924.07
2022-12-14T06:27:27.029Z,924.08
2022-12-14T06:28:27.050Z,924.07
2022-12-14T06:29:26.989Z,924.10
2022-12-14T06:30:27.004Z,924.10
2022-12-14T06:31:27.124Z,924.08
2022-12-14T06:32:27.012Z,924.08
2022-12-14T06:33:27.403Z,924.15
2022-12-14T06:34:28.778Z,924.07
2022-12-14T06:35:27.035Z,924.06
2022-12-14T06:36:26.947Z,924.08
2022-12-14T06:37:26.948Z,924.05
2022-12-14T06:38:27.019Z,924.05
2022-12-14T06:39:27.020Z,924.04
2022-12-14T06:40:26.926Z,924.06
2022-12-14T06:41:27.029Z,924.06
2022-12-14T06:42:26.879Z,924.11
2022-12-14T06:43:27.520Z,924.10
2022-12-14T06:44:26.951Z,924.13
2022-12-14T06:45:26.931Z,924.12
2022-12-14T06:46:26.850Z,924.10
2022-12-14T06:47:26.871Z,924.12
2022-12-14T06:48:26.873Z,924.14
2022-12-14T06:49:26.827Z,924.14
2022-12-14T06:50:27.624Z,924.14
2022-12-14T06:51:26.891Z,924.15
2022-12-14T06:52:27.525Z,924.15
2022-12-14T06:53:27.698Z,924.14
2022-12-14T06:54:26.822Z,924.13
2022-12-14T06:55:26.765Z,924.12
2022-12-14T06:56:27.545Z,924.13
2022-12-14T06:57:26.718Z,924.13
2022-12-14T06:58:31.009Z,924.14
2022-12-14T06:59:26.735Z,924.15
2022-12-14T07:00:26.842Z,924.17
2022-12-14T07:01:26.933Z,924.18
2022-12-14T07:02:27.026Z,924.15
2022-12-14T07:03:27.050Z,924.18
2022-12-14T07:04:26.675Z,924.18
2022-12-14T07:05:26.887Z,924.14
2022-12-14T07:06:26.691Z,924.13
2022-12-14T07:07:26.696Z,924.12
2022-12-14T07:08:27.631Z,924.10
2022-12-14T07:09:26.616Z,924.09
2022-12-14T07:10:26.601Z,924.08
2022-12-14T07:11:26.621Z,924.07
2022-12-14T07:12:26.628Z,924.05
2022-12-14T07:13:26.892Z,924.07
2022-12-14T07:14:26.640Z,924.07
2022-12-14T07:15:26.558Z,924.09
2022-12-14T07:16:26.553Z,924.13
2022-12-14T07:17:26.876Z,924.13
2022-12-14T07:18:26.579Z,924.11
2022-12-14T07:19:26.582Z,924.11
2022-12-14T07:20:26.475Z,924.14
2022-12-14T07:21:26.598Z,924.14
2022-12-14T07:22:26.500Z,924.15
2022-12-14T07:23:28.525Z,924.17
2022-12-14T07:24:26.537Z,924.13
2022-12-14T07:25:27.442Z,924.15
2022-12-14T07:26:26.416Z,924.19
2022-12-14T07:27:26.433Z,924.22
2022-12-14T07:28:26.427Z,924.26
2022-12-14T07:29:34.097Z,924.26
2022-12-14T07:30:26.431Z,924.24
2022-12-14T07:31:26.541Z,924.24
2022-12-14T07:32:26.365Z,924.25
2022-12-14T07:33:26.513Z,924.25
2022-12-14T07:34:26.357Z,924.26
2022-12-14T07:35:26.367Z,924.30
2022-12-14T07:36:26.312Z,924.30
2022-12-14T07:37:26.283Z,924.31
2022-12-14T07:38:26.223Z,924.37
2022-12-14T07:39:26.285Z,924.36
2022-12-14T07:40:26.326Z,924.37
2022-12-14T07:41:26.405Z,924.34
2022-12-14T07:42:26.314Z,924.34
2022-12-14T07:43:26.638Z,924.31
2022-12-14T07:44:26.327Z,924.31
2022-12-14T07:45:26.275Z,924.37
2022-12-14T07:46:26.367Z,924.39
2022-12-14T07:47:26.245Z,924.39
2022-12-14T07:48:26.261Z,924.41
2022-12-14T07:49:26.257Z,924.39
2022-12-14T07:50:26.264Z,924.41
2022-12-14T07:51:26.213Z,924.43
2022-12-14T07:52:26.196Z,924.42
2022-12-14T07:53:26.823Z,924.47
2022-12-14T07:54:26.189Z,924.45
2022-12-14T07:55:26.136Z,924.50
2022-12-14T07:56:26.138Z,924.50
2022-12-14T07:57:26.077Z,924.51
2022-12-14T07:58:26.090Z,924.49
2022-12-14T07:59:26.394Z,924.49
2022-12-14T08:00:26.026Z,924.50
2022-12-14T08:01:26.157Z,924.51
2022-12-14T08:02:26.167Z,924.54
2022-12-14T08:03:26.255Z,924.55
2022-12-14T08:04:26.113Z,924.58
2022-12-14T08:05:26.000Z,924.63
2022-12-14T08:06:25.960Z,924.60
2022-12-14T08:07:26.017Z,924.60
2022-12-14T08:08:26.084Z,924.60
2022-12-14T08:09:25.978Z,924.63
2022-12-14T08:10:25.991Z,924.61
2022-12-14T08:11:25.937Z,924.70
2022-12-14T08:12:26.000Z,924.67
2022-12-14T08:13:26.311Z,924.65
2022-12-14T08:14:25.955Z,924.63
2022-12-14T08:15:25.859Z,924.63
2022-12-14T08:16:26.243Z,924.60
2022-12-14T08:17:25.871Z,924.61
2022-12-14T08:18:25.833Z,924.59
2022-12-14T08:19:25.851Z,924.61
2022-12-14T08:20:25.864Z,924.65
2022-12-14T08:21:25.798Z,924.67
2022-12-14T08:22:25.805Z,924.68
2022-12-14T08:23:25.811Z,924.71
2022-12-14T08:24:25.789Z,924.72
2022-12-14T08:25:25.721Z,924.75
2022-12-14T08:26:31.585Z,924.79
2022-12-14T08:27:25.792Z,924.81
2022-12-14T08:28:25.738Z,924.81
2022-12-14T08:29:25.796Z,924.85
2022-12-14T08:30:25.662Z,924.82
2022-12-14T08:31:25.716Z,924.85
2022-12-14T08:32:30.968Z,924.90
2022-12-14T08:33:25.726Z,924.89
2022-12-14T08:34:25.736Z,924.89
2022-12-14T08:35:25.747Z,924.92
2022-12-14T08:36:25.652Z,924.91
2022-12-14T08:37:25.965Z,924.95
2022-12-14T08:38:25.670Z,925.01
2022-12-14T08:39:25.684Z,924.92
2022-12-14T08:40:25.752Z,924.93
2022-12-14T08:41:25.689Z,924.93
2022-12-14T08:42:25.755Z,924.92
2022-12-14T08:43:25.652Z,924.96
2022-12-14T08:44:25.671Z,924.98
2022-12-14T08:45:25.613Z,924.96
2022-12-14T08:46:25.593Z,924.99
2022-12-14T08:47:25.633Z,925.01
2022-12-14T08:48:25.523Z,924.98
2022-12-14T08:49:31.936Z,925.00
2022-12-14T08:50:25.539Z,925.05
2022-12-14T08:51:25.557Z,925.06
2022-12-14T08:52:25.555Z,925.08
2022-12-14T08:53:25.563Z,925.09
2022-12-14T08:54:25.407Z,925.10
2022-12-14T08:55:29.127Z,925.12
2022-12-14T08:56:25.489Z,925.12
2022-12-14T08:57:25.544Z,925.10
2022-12-14T08:58:25.505Z,925.11
2022-12-14T08:59:59.408Z,925.10
2022-12-14T09:00:25.410Z,925.12
2022-12-14T09:01:32.124Z,925.12
2022-12-14T09:02:25.508Z,925.14
2022-12-14T09:03:25.433Z,925.12
2022-12-14T09:04:25.437Z,925.12
2022-12-14T09:05:25.335Z,925.13
2022-12-14T09:06:25.378Z,925.14
2022-12-14T09:07:25.365Z,925.13
2022-12-14T09:08:25.906Z,925.14
2022-12-14T09:09:25.363Z,925.16
2022-12-14T09:10:25.335Z,925.18
2022-12-14T09:11:25.274Z,925.19
2022-12-14T09:12:25.214Z,925.18
2022-12-14T09:13:25.293Z,925.25
2022-12-14T09:14:25.297Z,925.19
2022-12-14T09:15:25.261Z,925.22
2022-12-14T09:16:25.258Z,925.23
2022-12-14T09:17:25.173Z,925.24
2022-12-14T09:18:25.176Z,925.28
2022-12-14T09:19:25.227Z,925.34
2022-12-14T09:20:25.229Z,925.30
2022-12-14T09:21:25.239Z,925.29
2022-12-14T09:22:25.189Z,925.30
2022-12-14T09:23:25.162Z,925.32
2022-12-14T09:24:25.121Z,925.33
2022-12-14T09:25:25.132Z,925.32
2022-12-14T09:26:25.193Z,925.32
2022-12-14T09:27:25.081Z,925.33
2022-12-14T09:28:25.089Z,925.30
2022-12-14T09:29:25.107Z,925.31
2022-12-14T09:30:26.982Z,925.28
2022-12-14T09:31:25.154Z,925.26
2022-12-14T09:32:25.073Z,925.29
2022-12-14T09:33:25.113Z,925.31
2022-12-14T09:34:25.743Z,925.32
2022-12-14T09:35:25.026Z,925.30
2022-12-14T09:36:24.995Z,925.38
2022-12-14T09:37:25.004Z,925.35
2022-12-14T09:38:25.059Z,925.37
2022-12-14T09:39:25.008Z,925.38
2022-12-14T09:40:24.956Z,925.38
2022-12-14T09:41:24.925Z,925.38
2022-12-14T09:42:25.086Z,925.43
2022-12-14T09:43:24.984Z,925.42
2022-12-14T09:44:25.059Z,925.40
2022-12-14T09:45:24.993Z,925.42
2022-12-14T09:46:24.858Z,925.36
2022-12-14T09:47:24.914Z,925.36
2022-12-14T09:48:24.876Z,925.35
2022-12-14T09:49:24.880Z,925.38
2022-12-14T09:50:25.143Z,925.37
2022-12-14T09:51:25.121Z,925.38
2022-12-14T09:52:24.956Z,925.40
2022-12-14T09:53:24.908Z,925.42
2022-12-14T09:54:24.881Z,925.45
2022-12-14T09:55:24.815Z,925.48
2022-12-14T09:56:24.874Z,925.50
2022-12-14T09:57:24.781Z,925.51
2022-12-14T09:58:25.471Z,925.53
2022-12-14T09:59:24.790Z,925.59
2022-12-14T10:00:24.740Z,925.58
2022-12-14T10:01:24.933Z,925.60
2022-12-14T10:02:32.792Z,925.67
2022-12-14T10:03:24.918Z,925.60
2022-12-14T10:04:24.728Z,925.64
2022-12-14T10:05:24.730Z,925.63
2022-12-14T10:06:24.785Z,925.61
2022-12-14T10:07:24.698Z,925.64
2022-12-14T10:08:24.748Z,925.64
2022-12-14T10:09:24.673Z,925.65
2022-12-14T10:10:24.662Z,925.66
2022-12-14T10:11:25.071Z,925.70
2022-12-14T10:12:27.344Z,925.71
2022-12-14T10:13:24.679Z,925.73
2022-12-14T10:14:24.581Z,925.72
2022-12-14T10:15:24.648Z,925.73
2022-12-14T10:16:24.584Z,925.78
2022-12-14T10:17:24.604Z,925.77
2022-12-14T10:18:57.476Z,925.80
2022-12-14T10:19:24.515Z,925.79
2022-12-14T10:20:24.520Z,925.82
2022-12-14T10:21:24.529Z,925.82
2022-12-14T10:22:24.532Z,925.83
2022-12-14T10:23:24.648Z,925.85
2022-12-14T10:24:24.602Z,925.88
2022-12-14T10:25:24.452Z,925.89
2022-12-14T10:26:24.458Z,925.95
2022-12-14T10:27:24.618Z,925.97
2022-12-14T10:28:24.573Z,925.96
2022-12-14T10:29:24.534Z,925.97
2022-12-14T10:30:24.404Z,925.93
2022-12-14T10:31:24.483Z,925.99
2022-12-14T10:32:24.452Z,925.99
2022-12-14T10:33:24.455Z,925.95
2022-12-14T10:34:24.418Z,925.94
2022-12-14T10:35:24.421Z,925.92
2022-12-14T10:36:24.344Z,925.94
2022-12-14T10:37:24.334Z,925.86
2022-12-14T10:38:24.439Z,925.90
2022-12-14T10:39:24.408Z,925.90
2022-12-14T10:40:33.140Z,925.86
2022-12-14T10:41:24.405Z,925.88
2022-12-14T10:42:24.265Z,925.80
2022-12-14T10:43:24.472Z,925.80
2022-12-14T10:44:24.286Z,925.80
2022-12-14T10:45:40.365Z,925.78
2022-12-14T10:46:24.316Z,925.78
2022-12-14T10:47:24.310Z,925.77
2022-12-14T10:48:24.307Z,925.75
2022-12-14T10:49:24.214Z,925.74
2022-12-14T10:50:24.193Z,925.73
2022-12-14T10:51:24.166Z,925.72
2022-12-14T10:52:24.236Z,925.74
2022-12-14T10:53:24.244Z,925.71
2022-12-14T10:54:24.139Z,925.72
2022-12-14T10:55:24.151Z,925.72
2022-12-14T10:56:24.388Z,925.76
2022-12-14T10:57:24.278Z,925.79
2022-12-14T10:58:24.100Z,925.86
2022-12-14T10:59:24.111Z,925.75
2022-12-14T11:00:24.362Z,925.77
2022-12-14T11:01:24.227Z,925.78
2022-12-14T11:02:24.333Z,925.80
2022-12-14T11:03:24.076Z,925.78
2022-12-14T11:04:24.053Z,925.82
2022-12-14T11:05:24.058Z,925.86
2022-12-14T11:06:23.999Z,925.89
2022-12-14T11:07:24.039Z,925.89
2022-12-14T11:08:23.973Z,925.91
2022-12-14T11:09:24.060Z,925.92
2022-12-14T11:10:23.990Z,925.94
2022-12-14T11:11:24.071Z,925.93
2022-12-14T11:12:23.938Z,925.92
2022-12-14T11:13:23.967Z,925.93
2022-12-14T11:14:23.974Z,925.91
2022-12-14T11:15:24.397Z,925.91
2022-12-14T11:16:27.672Z,925.90
2022-12-14T11:17:24.104Z,925.88
2022-12-14T11:18:24.054Z,925.88
2022-12-14T11:19:23.880Z,925.89
2022-12-14T11:20:23.977Z,925.89
2022-12-14T11:21:23.861Z,925.91
2022-12-14T11:22:23.858Z,925.92
2022-12-14T11:23:23.865Z,925.92
2022-12-14T11:24:24.533Z,925.92
2022-12-14T11:25:23.822Z,925.95
2022-12-14T11:26:23.825Z,925.98
2022-12-14T11:27:23.786Z,925.96
2022-12-14T11:28:23.869Z,925.91
2022-12-14T11:29:23.797Z,925.97
2022-12-14T11:30:23.950Z,925.96
2022-12-14T11:31:23.848Z,926.03
2022-12-14T11:32:23.827Z,926.01
2022-12-14T11:33:24.042Z,926.01
2022-12-14T11:34:23.891Z,926.04
2022-12-14T11:35:24.366Z,926.11
2022-12-14T11:36:23.894Z,926.05
2022-12-14T11:37:23.700Z,926.05
2022-12-14T11:38:23.702Z,926.08
2022-12-14T11:39:23.685Z,926.04
2022-12-14T11:40:23.823Z,926.02
2022-12-14T11:41:24.344Z,926.05
2022-12-14T11:42:24.456Z,926.05
2022-12-14T11:43:23.796Z,926.04
2022-12-14T11:44:23.643Z,926.06
2022-12-14T11:45:23.649Z,926.04
2022-12-14T11:46:23.998Z,926.07
2022-12-14T11:47:23.876Z,926.07
2022-12-14T11:48:23.567Z,926.08
2022-12-14T11:49:23.684Z,926.08
2022-12-14T11:50:23.592Z,926.05
2022-12-14T11:51:23.537Z,926.05
2022-12-14T11:52:23.581Z,926.09
2022-12-14T11:53:23.675Z,926.06
2022-12-14T11:54:23.563Z,926.08
2022-12-14T11:55:27.039Z,926.19
2022-12-14T11:56:23.480Z,926.15
2022-12-14T11:57:23.490Z,926.19
2022-12-14T11:58:23.793Z,926.14
2022-12-14T11:59:23.496Z,926.17
2022-12-14T12:00:23.549Z,926.19
2022-12-14T12:01:23.561Z,926.19
2022-12-14T12:02:23.449Z,926.17
2022-12-14T12:03:23.494Z,926.14
2022-12-14T12:04:24.092Z,926.15
2022-12-14T12:05:24.160Z,926.08
2022-12-14T12:06:23.379Z,926.09
2022-12-14T12:07:23.445Z,926.10
2022-12-14T12:08:23.556Z,926.11
2022-12-14T12:09:23.827Z,926.12
2022-12-14T12:10:23.366Z,926.15
2022-12-14T12:11:23.378Z,926.17
2022-12-14T12:12:23.392Z,926.18
2022-12-14T12:13:23.337Z,926.22
2022-12-14T12:14:24.754Z,926.23
2022-12-14T12:15:23.550Z,926.29
2022-12-14T12:16:23.349Z,926.23
2022-12-14T12:17:23.322Z,926.24
2022-12-14T12:18:24.147Z,926.25
2022-12-14T12:19:23.224Z,926.26
2022-12-14T12:20:23.193Z,926.21
2022-12-14T12:21:23.187Z,926.23
2022-12-14T12:22:23.194Z,926.23
2022-12-14T12:23:23.471Z,926.28
2022-12-14T12:24:23.280Z,926.26
2022-12-14T12:25:27.539Z,926.28
2022-12-14T12:26:23.176Z,926.28
2022-12-14T12:27:23.136Z,926.28
2022-12-14T12:28:23.183Z,926.32